sensor_id;sensor_type;location;lat;lon;timestamp;temperature;humidity
19261;DHT22;9764;48.114;11.670;2023-04-07T00:02:04;19.70;74.20
19261;DHT22;9764;48.114;11.670;2023-04-07T00:04:32;19.70;74.30
19261;DHT22;9764;48.114;11.670;2023-04-07T00:07:00;19.70;74.30
19261;DHT22;9764;48.114;11.670;2023-04-07T00:09:29;19.70;74.30
19261;DHT22;9764;48.114;11.670;2023-04-07T00:11:57;19.70;74.30
19261;DHT22;9764;48.114;11.670;2023-04-07T00:14:27;19.70;74.20
19261;DHT22;9764;48.114;11.670;2023-04-07T00:16:56;19.70;74.30
19261;DHT22;9764;48.114;11.670;2023-04-07T00:19:25;19.70;75.10
19261;DHT22;9764;48.114;11.670;2023-04-07T00:21:54;19.70;74.30
19261;DHT22;9764;48.114;11.670;2023-04-07T00:24:22;19.70;74.40
19261;DHT22;9764;48.114;11.670;2023-04-07T00:27:00;19.70;74.30
19261;DHT22;9764;48.114;11.670;2023-04-07T00:29:29;19.70;74.40
19261;DHT22;9764;48.114;11.670;2023-04-07T00:31:57;19.60;74.20
19261;DHT22;9764;48.114;11.670;2023-04-07T00:34:27;19.70;74.40
19261;DHT22;9764;48.114;11.670;2023-04-07T00:36:55;19.60;74.20
19261;DHT22;9764;48.114;11.670;2023-04-07T00:39:23;19.60;74.30
19261;DHT22;9764;48.114;11.670;2023-04-07T00:41:53;19.70;74.40
19261;DHT22;9764;48.114;11.670;2023-04-07T00:44:22;19.60;74.30
19261;DHT22;9764;48.114;11.670;2023-04-07T00:46:50;19.60;74.40
19261;DHT22;9764;48.114;11.670;2023-04-07T00:49:19;19.60;74.30
19261;DHT22;9764;48.114;11.670;2023-04-07T00:51:48;19.60;74.40
19261;DHT22;9764;48.114;11.670;2023-04-07T00:54:17;19.60;74.40
19261;DHT22;9764;48.114;11.670;2023-04-07T00:56:45;19.60;74.40
19261;DHT22;9764;48.114;11.670;2023-04-07T00:59:14;19.60;74.40
19261;DHT22;9764;48.114;11.670;2023-04-07T01:01:46;19.60;74.40
19261;DHT22;9764;48.114;11.670;2023-04-07T01:04:21;19.60;74.40
19261;DHT22;9764;48.114;11.670;2023-04-07T01:06:58;19.60;74.40
19261;DHT22;9764;48.114;11.670;2023-04-07T01:09:39;19.60;74.40
19261;DHT22;9764;48.114;11.670;2023-04-07T01:12:14;19.60;74.50
19261;DHT22;9764;48.114;11.670;2023-04-07T01:14:50;19.60;74.40
19261;DHT22;9764;48.114;11.670;2023-04-07T01:17:33;19.60;74.50
19261;DHT22;9764;48.114;11.670;2023-04-07T01:20:03;19.60;74.50
19261;DHT22;9764;48.114;11.670;2023-04-07T01:22:40;19.60;74.50
19261;DHT22;9764;48.114;11.670;2023-04-07T01:25:37;19.60;74.50
19261;DHT22;9764;48.114;11.670;2023-04-07T01:28:28;19.60;74.50
19261;DHT22;9764;48.114;11.670;2023-04-07T01:31:03;19.60;74.50
19261;DHT22;9764;48.114;11.670;2023-04-07T01:33:33;19.60;74.50
19261;DHT22;9764;48.114;11.670;2023-04-07T01:36:05;19.50;74.50
19261;DHT22;9764;48.114;11.670;2023-04-07T01:38:34;19.60;74.50
19261;DHT22;9764;48.114;11.670;2023-04-07T01:41:03;19.50;74.40
19261;DHT22;9764;48.114;11.670;2023-04-07T01:43:32;19.60;74.50
19261;DHT22;9764;48.114;11.670;2023-04-07T01:46:02;19.50;74.50
19261;DHT22;9764;48.114;11.670;2023-04-07T01:48:31;19.60;74.60
19261;DHT22;9764;48.114;11.670;2023-04-07T01:51:00;19.50;74.50
19261;DHT22;9764;48.114;11.670;2023-04-07T01:53:30;19.60;74.60
19261;DHT22;9764;48.114;11.670;2023-04-07T01:55:59;19.60;74.60
19261;DHT22;9764;48.114;11.670;2023-04-07T01:58:28;19.60;74.60
19261;DHT22;9764;48.114;11.670;2023-04-07T02:00:57;19.60;74.60
19261;DHT22;9764;48.114;11.670;2023-04-07T02:03:31;19.50;75.40
19261;DHT22;9764;48.114;11.670;2023-04-07T02:06:05;19.50;74.50
19261;DHT22;9764;48.114;11.670;2023-04-07T02:08:35;19.60;74.60
19261;DHT22;9764;48.114;11.670;2023-04-07T02:11:06;19.50;74.60
19261;DHT22;9764;48.114;11.670;2023-04-07T02:13:36;19.50;74.60
19261;DHT22;9764;48.114;11.670;2023-04-07T02:16:07;19.50;74.60
19261;DHT22;9764;48.114;11.670;2023-04-07T02:18:38;19.50;74.60
19261;DHT22;9764;48.114;11.670;2023-04-07T02:21:07;19.50;74.70
19261;DHT22;9764;48.114;11.670;2023-04-07T02:23:37;19.50;74.60
19261;DHT22;9764;48.114;11.670;2023-04-07T02:26:05;19.50;74.60
19261;DHT22;9764;48.114;11.670;2023-04-07T02:28:33;19.50;74.70
19261;DHT22;9764;48.114;11.670;2023-04-07T02:31:02;19.50;74.60
19261;DHT22;9764;48.114;11.670;2023-04-07T02:33:31;19.50;74.70
19261;DHT22;9764;48.114;11.670;2023-04-07T02:36:01;19.50;74.70
19261;DHT22;9764;48.114;11.670;2023-04-07T02:38:30;19.50;74.60
19261;DHT22;9764;48.114;11.670;2023-04-07T02:40:58;19.50;74.80
19261;DHT22;9764;48.114;11.670;2023-04-07T02:43:28;19.50;74.70
19261;DHT22;9764;48.114;11.670;2023-04-07T02:45:57;19.50;74.70
19261;DHT22;9764;48.114;11.670;2023-04-07T02:48:25;19.50;74.70
19261;DHT22;9764;48.114;11.670;2023-04-07T02:50:53;19.50;74.70
19261;DHT22;9764;48.114;11.670;2023-04-07T02:53:23;19.50;74.80
19261;DHT22;9764;48.114;11.670;2023-04-07T02:55:52;19.50;74.80
19261;DHT22;9764;48.114;11.670;2023-04-07T02:58:20;19.50;74.80
19261;DHT22;9764;48.114;11.670;2023-04-07T03:00:48;19.50;74.80
19261;DHT22;9764;48.114;11.670;2023-04-07T03:03:23;19.50;74.70
19261;DHT22;9764;48.114;11.670;2023-04-07T03:06:02;19.50;74.80
19261;DHT22;9764;48.114;11.670;2023-04-07T03:08:34;19.50;74.80
19261;DHT22;9764;48.114;11.670;2023-04-07T03:11:04;19.50;74.80
19261;DHT22;9764;48.114;11.670;2023-04-07T03:13:32;19.50;74.90
19261;DHT22;9764;48.114;11.670;2023-04-07T03:16:01;19.50;74.80
19261;DHT22;9764;48.114;11.670;2023-04-07T03:18:35;19.50;74.80
19261;DHT22;9764;48.114;11.670;2023-04-07T03:21:04;19.50;74.80
19261;DHT22;9764;48.114;11.670;2023-04-07T03:23:34;19.40;74.70
19261;DHT22;9764;48.114;11.670;2023-04-07T03:26:02;19.50;74.90
19261;DHT22;9764;48.114;11.670;2023-04-07T03:28:34;19.50;74.90
19261;DHT22;9764;48.114;11.670;2023-04-07T03:31:02;19.50;74.90
19261;DHT22;9764;48.114;11.670;2023-04-07T03:33:31;19.50;74.90
19261;DHT22;9764;48.114;11.670;2023-04-07T03:35:59;19.50;74.90
19261;DHT22;9764;48.114;11.670;2023-04-07T03:38:28;19.50;74.90
19261;DHT22;9764;48.114;11.670;2023-04-07T03:41:01;19.50;74.90
19261;DHT22;9764;48.114;11.670;2023-04-07T03:43:30;19.40;74.80
19261;DHT22;9764;48.114;11.670;2023-04-07T03:46:00;19.50;74.90
19261;DHT22;9764;48.114;11.670;2023-04-07T03:48:30;19.50;75.00
19261;DHT22;9764;48.114;11.670;2023-04-07T03:51:05;19.40;74.80
19261;DHT22;9764;48.114;11.670;2023-04-07T03:53:34;19.40;74.80
19261;DHT22;9764;48.114;11.670;2023-04-07T03:56:16;19.50;75.00
19261;DHT22;9764;48.114;11.670;2023-04-07T03:58:48;19.40;74.90
19261;DHT22;9764;48.114;11.670;2023-04-07T04:01:24;19.40;74.90
19261;DHT22;9764;48.114;11.670;2023-04-07T04:03:54;19.50;75.00
19261;DHT22;9764;48.114;11.670;2023-04-07T04:06:29;19.40;74.90
19261;DHT22;9764;48.114;11.670;2023-04-07T04:09:05;19.40;74.90
19261;DHT22;9764;48.114;11.670;2023-04-07T04:11:38;19.40;75.00
19261;DHT22;9764;48.114;11.670;2023-04-07T04:14:07;19.40;75.30
19261;DHT22;9764;48.114;11.670;2023-04-07T04:16:36;19.40;75.30
19261;DHT22;9764;48.114;11.670;2023-04-07T04:19:14;19.40;75.30
19261;DHT22;9764;48.114;11.670;2023-04-07T04:21:44;19.40;75.40
19261;DHT22;9764;48.114;11.670;2023-04-07T04:24:13;19.50;75.40
19261;DHT22;9764;48.114;11.670;2023-04-07T04:26:44;19.40;75.40
19261;DHT22;9764;48.114;11.670;2023-04-07T04:29:13;19.50;75.50
19261;DHT22;9764;48.114;11.670;2023-04-07T04:31:43;19.50;75.40
19261;DHT22;9764;48.114;11.670;2023-04-07T04:34:11;19.50;75.50
19261;DHT22;9764;48.114;11.670;2023-04-07T04:36:41;19.50;75.40
19261;DHT22;9764;48.114;11.670;2023-04-07T04:39:10;19.50;76.30
19261;DHT22;9764;48.114;11.670;2023-04-07T04:41:39;19.50;76.30
19261;DHT22;9764;48.114;11.670;2023-04-07T04:44:11;19.40;75.40
19261;DHT22;9764;48.114;11.670;2023-04-07T04:46:41;19.50;76.30
19261;DHT22;9764;48.114;11.670;2023-04-07T04:49:09;19.40;75.70
19261;DHT22;9764;48.114;11.670;2023-04-07T04:51:38;19.40;76.60
19261;DHT22;9764;48.114;11.670;2023-04-07T04:54:13;19.50;75.80
19261;DHT22;9764;48.114;11.670;2023-04-07T04:56:42;19.40;75.70
19261;DHT22;9764;48.114;11.670;2023-04-07T04:59:12;19.50;75.80
19261;DHT22;9764;48.114;11.670;2023-04-07T05:01:51;19.50;75.80
19261;DHT22;9764;48.114;11.670;2023-04-07T05:04:19;19.40;75.60
19261;DHT22;9764;48.114;11.670;2023-04-07T05:06:56;19.50;75.70
19261;DHT22;9764;48.114;11.670;2023-04-07T05:09:27;19.50;75.80
19261;DHT22;9764;48.114;11.670;2023-04-07T05:11:56;19.50;75.60
19261;DHT22;9764;48.114;11.670;2023-04-07T05:14:27;19.40;75.70
19261;DHT22;9764;48.114;11.670;2023-04-07T05:17:03;19.50;75.60
19261;DHT22;9764;48.114;11.670;2023-04-07T05:19:32;19.50;75.70
19261;DHT22;9764;48.114;11.670;2023-04-07T05:22:06;19.50;75.60
19261;DHT22;9764;48.114;11.670;2023-04-07T05:24:42;19.50;75.60
19261;DHT22;9764;48.114;11.670;2023-04-07T05:27:10;19.50;75.70
19261;DHT22;9764;48.114;11.670;2023-04-07T05:29:40;19.50;75.60
19261;DHT22;9764;48.114;11.670;2023-04-07T05:32:18;19.40;75.60
19261;DHT22;9764;48.114;11.670;2023-04-07T05:34:47;19.40;75.60
19261;DHT22;9764;48.114;11.670;2023-04-07T05:37:16;19.50;75.60
19261;DHT22;9764;48.114;11.670;2023-04-07T05:39:45;19.40;75.60
19261;DHT22;9764;48.114;11.670;2023-04-07T05:42:14;19.50;75.70
19261;DHT22;9764;48.114;11.670;2023-04-07T05:44:46;19.40;75.60
19261;DHT22;9764;48.114;11.670;2023-04-07T05:47:16;19.50;75.60
19261;DHT22;9764;48.114;11.670;2023-04-07T05:49:44;19.50;75.60
19261;DHT22;9764;48.114;11.670;2023-04-07T05:52:13;19.50;75.60
19261;DHT22;9764;48.114;11.670;2023-04-07T05:54:47;19.50;75.60
19261;DHT22;9764;48.114;11.670;2023-04-07T05:57:16;19.40;75.60
19261;DHT22;9764;48.114;11.670;2023-04-07T05:59:48;19.40;75.60
19261;DHT22;9764;48.114;11.670;2023-04-07T06:02:16;19.50;75.60
19261;DHT22;9764;48.114;11.670;2023-04-07T06:04:47;19.50;76.50
19261;DHT22;9764;48.114;11.670;2023-04-07T06:07:17;19.50;75.60
19261;DHT22;9764;48.114;11.670;2023-04-07T06:09:45;19.50;75.70
19261;DHT22;9764;48.114;11.670;2023-04-07T06:12:14;19.50;75.60
19261;DHT22;9764;48.114;11.670;2023-04-07T06:14:45;19.50;75.70
19261;DHT22;9764;48.114;11.670;2023-04-07T06:17:15;19.50;75.60
19261;DHT22;9764;48.114;11.670;2023-04-07T06:19:45;19.50;75.60
19261;DHT22;9764;48.114;11.670;2023-04-07T06:22:14;19.50;75.60
19261;DHT22;9764;48.114;11.670;2023-04-07T06:24:42;19.50;75.60
19261;DHT22;9764;48.114;11.670;2023-04-07T06:27:10;19.50;75.60
19261;DHT22;9764;48.114;11.670;2023-04-07T06:29:39;19.50;75.60
19261;DHT22;9764;48.114;11.670;2023-04-07T06:32:07;19.50;75.60
19261;DHT22;9764;48.114;11.670;2023-04-07T06:34:37;19.50;75.60
19261;DHT22;9764;48.114;11.670;2023-04-07T06:37:05;19.50;75.50
19261;DHT22;9764;48.114;11.670;2023-04-07T06:39:34;19.50;75.50
19261;DHT22;9764;48.114;11.670;2023-04-07T06:42:04;19.50;76.40
19261;DHT22;9764;48.114;11.670;2023-04-07T06:44:37;19.50;75.60
19261;DHT22;9764;48.114;11.670;2023-04-07T06:47:05;19.60;75.60
19261;DHT22;9764;48.114;11.670;2023-04-07T06:49:35;19.60;75.60
19261;DHT22;9764;48.114;11.670;2023-04-07T06:52:05;19.60;75.60
19261;DHT22;9764;48.114;11.670;2023-04-07T06:54:33;19.60;75.60
19261;DHT22;9764;48.114;11.670;2023-04-07T06:57:02;19.70;75.60
19261;DHT22;9764;48.114;11.670;2023-04-07T06:59:30;19.70;75.60
19261;DHT22;9764;48.114;11.670;2023-04-07T07:01:58;19.70;76.40
19261;DHT22;9764;48.114;11.670;2023-04-07T07:04:27;19.70;75.50
19261;DHT22;9764;48.114;11.670;2023-04-07T07:06:55;19.80;75.50
19261;DHT22;9764;48.114;11.670;2023-04-07T07:09:25;19.70;75.40
19261;DHT22;9764;48.114;11.670;2023-04-07T07:11:53;19.80;75.40
19261;DHT22;9764;48.114;11.670;2023-04-07T07:14:22;19.80;75.40
19261;DHT22;9764;48.114;11.670;2023-04-07T07:16:50;19.80;75.30
19261;DHT22;9764;48.114;11.670;2023-04-07T07:19:18;19.80;76.10
19261;DHT22;9764;48.114;11.670;2023-04-07T07:21:47;19.80;75.30
19261;DHT22;9764;48.114;11.670;2023-04-07T07:24:15;19.80;75.40
19261;DHT22;9764;48.114;11.670;2023-04-07T07:26:45;19.80;75.40
19261;DHT22;9764;48.114;11.670;2023-04-07T07:29:13;19.80;75.40
19261;DHT22;9764;48.114;11.670;2023-04-07T07:31:42;19.80;75.40
19261;DHT22;9764;48.114;11.670;2023-04-07T07:34:10;19.80;75.30
19261;DHT22;9764;48.114;11.670;2023-04-07T07:36:38;19.80;75.30
19261;DHT22;9764;48.114;11.670;2023-04-07T07:39:07;19.80;75.30
19261;DHT22;9764;48.114;11.670;2023-04-07T07:41:35;19.90;75.30
19261;DHT22;9764;48.114;11.670;2023-04-07T07:44:05;19.90;76.20
19261;DHT22;9764;48.114;11.670;2023-04-07T07:46:33;19.90;75.30
19261;DHT22;9764;48.114;11.670;2023-04-07T07:49:01;19.90;75.20
19261;DHT22;9764;48.114;11.670;2023-04-07T07:51:31;19.90;75.20
19261;DHT22;9764;48.114;11.670;2023-04-07T07:53:59;20.00;75.20
19261;DHT22;9764;48.114;11.670;2023-04-07T07:56:27;20.00;75.10
19261;DHT22;9764;48.114;11.670;2023-04-07T07:58:56;20.00;75.10
19261;DHT22;9764;48.114;11.670;2023-04-07T08:01:26;20.00;75.00
19261;DHT22;9764;48.114;11.670;2023-04-07T08:03:54;20.10;75.10
19261;DHT22;9764;48.114;11.670;2023-04-07T08:06:23;20.10;75.00
19261;DHT22;9764;48.114;11.670;2023-04-07T08:08:51;20.10;74.90
19261;DHT22;9764;48.114;11.670;2023-04-07T08:11:19;20.20;75.00
19261;DHT22;9764;48.114;11.670;2023-04-07T08:13:48;20.20;75.70
19261;DHT22;9764;48.114;11.670;2023-04-07T08:16:16;20.20;74.80
19261;DHT22;9764;48.114;11.670;2023-04-07T08:18:47;20.20;74.70
19261;DHT22;9764;48.114;11.670;2023-04-07T08:21:15;20.20;74.70
19261;DHT22;9764;48.114;11.670;2023-04-07T08:23:44;20.30;74.70
19261;DHT22;9764;48.114;11.670;2023-04-07T08:26:12;20.30;74.70
19261;DHT22;9764;48.114;11.670;2023-04-07T08:28:41;20.30;74.70
19261;DHT22;9764;48.114;11.670;2023-04-07T08:31:09;20.30;74.60
19261;DHT22;9764;48.114;11.670;2023-04-07T08:33:38;20.40;74.60
19261;DHT22;9764;48.114;11.670;2023-04-07T08:36:08;20.40;74.60
19261;DHT22;9764;48.114;11.670;2023-04-07T08:38:36;20.40;74.60
19261;DHT22;9764;48.114;11.670;2023-04-07T08:41:11;20.40;75.40
19261;DHT22;9764;48.114;11.670;2023-04-07T08:43:41;20.40;74.60
19261;DHT22;9764;48.114;11.670;2023-04-07T08:46:10;20.40;74.50
19261;DHT22;9764;48.114;11.670;2023-04-07T08:48:42;20.40;74.50
19261;DHT22;9764;48.114;11.670;2023-04-07T08:51:13;20.40;74.60
19261;DHT22;9764;48.114;11.670;2023-04-07T08:53:47;20.40;74.60
19261;DHT22;9764;48.114;11.670;2023-04-07T08:56:17;20.40;74.60
19261;DHT22;9764;48.114;11.670;2023-04-07T08:58:46;20.40;74.60
19261;DHT22;9764;48.114;11.670;2023-04-07T09:01:15;20.40;74.70
19261;DHT22;9764;48.114;11.670;2023-04-07T09:03:44;20.40;74.70
19261;DHT22;9764;48.114;11.670;2023-04-07T09:06:15;20.40;74.70
19261;DHT22;9764;48.114;11.670;2023-04-07T09:08:43;20.40;74.70
19261;DHT22;9764;48.114;11.670;2023-04-07T09:11:11;20.40;74.70
19261;DHT22;9764;48.114;11.670;2023-04-07T09:13:40;20.40;74.80
19261;DHT22;9764;48.114;11.670;2023-04-07T09:16:08;20.40;74.80
19261;DHT22;9764;48.114;11.670;2023-04-07T09:18:36;20.40;74.70
19261;DHT22;9764;48.114;11.670;2023-04-07T09:21:05;20.40;75.50
19261;DHT22;9764;48.114;11.670;2023-04-07T09:23:37;20.40;74.60
19261;DHT22;9764;48.114;11.670;2023-04-07T09:26:19;20.50;74.60
19261;DHT22;9764;48.114;11.670;2023-04-07T09:28:50;20.50;74.60
19261;DHT22;9764;48.114;11.670;2023-04-07T09:31:19;20.50;74.50
19261;DHT22;9764;48.114;11.670;2023-04-07T09:33:49;20.50;74.50
19261;DHT22;9764;48.114;11.670;2023-04-07T09:36:17;20.50;74.50
19261;DHT22;9764;48.114;11.670;2023-04-07T09:38:47;20.50;74.50
19261;DHT22;9764;48.114;11.670;2023-04-07T09:41:16;20.50;74.50
19261;DHT22;9764;48.114;11.670;2023-04-07T09:43:45;20.60;74.50
19261;DHT22;9764;48.114;11.670;2023-04-07T09:46:15;20.60;74.50
19261;DHT22;9764;48.114;11.670;2023-04-07T09:48:45;20.60;74.50
19261;DHT22;9764;48.114;11.670;2023-04-07T09:51:15;20.60;74.40
19261;DHT22;9764;48.114;11.670;2023-04-07T09:53:47;20.60;74.50
19261;DHT22;9764;48.114;11.670;2023-04-07T09:56:17;20.60;74.50
19261;DHT22;9764;48.114;11.670;2023-04-07T09:58:46;20.60;74.50
19261;DHT22;9764;48.114;11.670;2023-04-07T10:01:16;20.60;74.40
19261;DHT22;9764;48.114;11.670;2023-04-07T10:03:45;20.70;74.50
19261;DHT22;9764;48.114;11.670;2023-04-07T10:06:14;20.70;74.50
19261;DHT22;9764;48.114;11.670;2023-04-07T10:08:43;20.70;74.40
19261;DHT22;9764;48.114;11.670;2023-04-07T10:11:14;20.70;74.40
19261;DHT22;9764;48.114;11.670;2023-04-07T10:13:44;20.80;74.50
19261;DHT22;9764;48.114;11.670;2023-04-07T10:16:13;20.70;74.40
19261;DHT22;9764;48.114;11.670;2023-04-07T10:18:42;20.70;74.50
19261;DHT22;9764;48.114;11.670;2023-04-07T10:21:12;20.70;74.50
19261;DHT22;9764;48.114;11.670;2023-04-07T10:23:50;20.70;74.50
19261;DHT22;9764;48.114;11.670;2023-04-07T10:26:25;20.70;74.50
19261;DHT22;9764;48.114;11.670;2023-04-07T10:28:59;20.80;74.50
19261;DHT22;9764;48.114;11.670;2023-04-07T10:31:30;20.80;75.30
19261;DHT22;9764;48.114;11.670;2023-04-07T10:33:58;20.80;74.40
19261;DHT22;9764;48.114;11.670;2023-04-07T10:36:28;20.90;74.40
19261;DHT22;9764;48.114;11.670;2023-04-07T10:39:27;20.90;74.30
19261;DHT22;9764;48.114;11.670;2023-04-07T10:41:56;21.00;74.30
19261;DHT22;9764;48.114;11.670;2023-04-07T10:44:47;21.00;74.30
19261;DHT22;9764;48.114;11.670;2023-04-07T10:47:19;21.00;74.20
19261;DHT22;9764;48.114;11.670;2023-04-07T10:50:18;21.10;74.20
19261;DHT22;9764;48.114;11.670;2023-04-07T10:52:47;21.10;74.20
19261;DHT22;9764;48.114;11.670;2023-04-07T10:55:35;21.10;74.20
19261;DHT22;9764;48.114;11.670;2023-04-07T10:58:18;21.20;75.00
19261;DHT22;9764;48.114;11.670;2023-04-07T11:01:18;21.20;74.10
19261;DHT22;9764;48.114;11.670;2023-04-07T11:03:57;21.20;74.10
19261;DHT22;9764;48.114;11.670;2023-04-07T11:06:27;21.20;74.10
19261;DHT22;9764;48.114;11.670;2023-04-07T11:08:56;21.20;74.00
19261;DHT22;9764;48.114;11.670;2023-04-07T11:11:39;21.30;74.10
19261;DHT22;9764;48.114;11.670;2023-04-07T11:14:09;21.30;74.20
19261;DHT22;9764;48.114;11.670;2023-04-07T11:16:40;21.30;74.10
19261;DHT22;9764;48.114;11.670;2023-04-07T11:19:08;21.30;74.10
19261;DHT22;9764;48.114;11.670;2023-04-07T11:21:37;21.30;74.10
19261;DHT22;9764;48.114;11.670;2023-04-07T11:24:06;21.30;74.20
19261;DHT22;9764;48.114;11.670;2023-04-07T11:26:38;21.30;74.10
19261;DHT22;9764;48.114;11.670;2023-04-07T11:29:09;21.30;74.20
19261;DHT22;9764;48.114;11.670;2023-04-07T11:31:38;21.30;74.20
19261;DHT22;9764;48.114;11.670;2023-04-07T11:34:07;21.30;74.30
19261;DHT22;9764;48.114;11.670;2023-04-07T11:36:38;21.30;74.20
19261;DHT22;9764;48.114;11.670;2023-04-07T11:39:18;21.30;74.20
19261;DHT22;9764;48.114;11.670;2023-04-07T11:41:48;21.30;74.20
19261;DHT22;9764;48.114;11.670;2023-04-07T11:44:18;21.30;74.30
19261;DHT22;9764;48.114;11.670;2023-04-07T11:46:52;21.30;75.20
19261;DHT22;9764;48.114;11.670;2023-04-07T11:49:22;21.30;74.40
19261;DHT22;9764;48.114;11.670;2023-04-07T11:51:57;21.20;74.40
19261;DHT22;9764;48.114;11.670;2023-04-07T11:54:26;21.30;75.40
19261;DHT22;9764;48.114;11.670;2023-04-07T11:56:55;21.20;74.50
19261;DHT22;9764;48.114;11.670;2023-04-07T11:59:25;21.20;74.60
19261;DHT22;9764;48.114;11.670;2023-04-07T12:01:54;21.20;74.50
19261;DHT22;9764;48.114;11.670;2023-04-07T12:04:24;21.20;74.60
19261;DHT22;9764;48.114;11.670;2023-04-07T12:06:52;21.20;74.60
19261;DHT22;9764;48.114;11.670;2023-04-07T12:09:26;21.20;74.70
19261;DHT22;9764;48.114;11.670;2023-04-07T12:11:55;21.20;74.70
19261;DHT22;9764;48.114;11.670;2023-04-07T12:14:26;21.20;74.80
19261;DHT22;9764;48.114;11.670;2023-04-07T12:16:55;21.20;74.80
19261;DHT22;9764;48.114;11.670;2023-04-07T12:19:25;21.20;75.60
19261;DHT22;9764;48.114;11.670;2023-04-07T12:21:55;21.20;74.80
19261;DHT22;9764;48.114;11.670;2023-04-07T12:24:23;21.30;74.80
19261;DHT22;9764;48.114;11.670;2023-04-07T12:26:51;21.30;74.90
19261;DHT22;9764;48.114;11.670;2023-04-07T12:29:20;21.30;74.80
19261;DHT22;9764;48.114;11.670;2023-04-07T12:31:50;21.30;74.80
19261;DHT22;9764;48.114;11.670;2023-04-07T12:34:18;21.30;74.80
19261;DHT22;9764;48.114;11.670;2023-04-07T12:36:47;21.30;74.90
19261;DHT22;9764;48.114;11.670;2023-04-07T12:39:15;21.30;74.90
19261;DHT22;9764;48.114;11.670;2023-04-07T12:41:44;21.30;74.90
19261;DHT22;9764;48.114;11.670;2023-04-07T12:44:14;21.30;74.90
19261;DHT22;9764;48.114;11.670;2023-04-07T12:46:43;21.30;74.90
19261;DHT22;9764;48.114;11.670;2023-04-07T12:49:13;21.30;74.90
19261;DHT22;9764;48.114;11.670;2023-04-07T12:51:42;21.30;74.90
19261;DHT22;9764;48.114;11.670;2023-04-07T12:54:11;21.30;74.90
19261;DHT22;9764;48.114;11.670;2023-04-07T12:56:40;21.30;75.00
19261;DHT22;9764;48.114;11.670;2023-04-07T12:59:09;21.30;75.00
19261;DHT22;9764;48.114;11.670;2023-04-07T13:01:37;21.30;75.00
19261;DHT22;9764;48.114;11.670;2023-04-07T13:04:06;21.30;75.00
19261;DHT22;9764;48.114;11.670;2023-04-07T13:06:36;21.30;75.00
19261;DHT22;9764;48.114;11.670;2023-04-07T13:09:04;21.40;75.50
19261;DHT22;9764;48.114;11.670;2023-04-07T13:11:33;21.40;75.10
19261;DHT22;9764;48.114;11.670;2023-04-07T13:14:02;21.40;75.10
19261;DHT22;9764;48.114;11.670;2023-04-07T13:16:31;21.40;75.20
19261;DHT22;9764;48.114;11.670;2023-04-07T13:19:00;21.40;75.10
19261;DHT22;9764;48.114;11.670;2023-04-07T13:21:30;21.40;75.10
19261;DHT22;9764;48.114;11.670;2023-04-07T13:24:02;21.40;75.30
19261;DHT22;9764;48.114;11.670;2023-04-07T13:26:31;21.40;75.30
19261;DHT22;9764;48.114;11.670;2023-04-07T13:28:59;21.40;75.30
19261;DHT22;9764;48.114;11.670;2023-04-07T13:31:28;21.40;75.30
19261;DHT22;9764;48.114;11.670;2023-04-07T13:33:56;21.40;75.30
19261;DHT22;9764;48.114;11.670;2023-04-07T13:36:24;21.40;75.30
19261;DHT22;9764;48.114;11.670;2023-04-07T13:38:54;21.40;75.30
19261;DHT22;9764;48.114;11.670;2023-04-07T13:41:24;21.40;75.40
19261;DHT22;9764;48.114;11.670;2023-04-07T13:43:53;21.40;75.40
19261;DHT22;9764;48.114;11.670;2023-04-07T13:46:22;21.40;75.40
19261;DHT22;9764;48.114;11.670;2023-04-07T13:48:54;21.40;75.50
19261;DHT22;9764;48.114;11.670;2023-04-07T13:51:23;21.40;75.50
19261;DHT22;9764;48.114;11.670;2023-04-07T13:53:51;21.40;75.50
19261;DHT22;9764;48.114;11.670;2023-04-07T13:56:19;21.40;75.50
19261;DHT22;9764;48.114;11.670;2023-04-07T13:58:49;21.40;75.60
19261;DHT22;9764;48.114;11.670;2023-04-07T14:01:18;21.30;75.50
19261;DHT22;9764;48.114;11.670;2023-04-07T14:03:47;21.40;75.60
19261;DHT22;9764;48.114;11.670;2023-04-07T14:06:16;21.30;75.70
19261;DHT22;9764;48.114;11.670;2023-04-07T14:08:44;21.30;75.60
19261;DHT22;9764;48.114;11.670;2023-04-07T14:11:15;21.30;75.70
19261;DHT22;9764;48.114;11.670;2023-04-07T14:13:44;21.30;75.70
19261;DHT22;9764;48.114;11.670;2023-04-07T14:16:15;21.30;75.70
19261;DHT22;9764;48.114;11.670;2023-04-07T14:18:43;21.30;75.70
19261;DHT22;9764;48.114;11.670;2023-04-07T14:21:12;21.30;75.70
19261;DHT22;9764;48.114;11.670;2023-04-07T14:23:41;21.40;75.80
19261;DHT22;9764;48.114;11.670;2023-04-07T14:26:09;21.40;75.80
19261;DHT22;9764;48.114;11.670;2023-04-07T14:28:38;21.40;75.80
19261;DHT22;9764;48.114;11.670;2023-04-07T14:31:11;21.40;75.90
19261;DHT22;9764;48.114;11.670;2023-04-07T14:33:41;21.40;75.90
19261;DHT22;9764;48.114;11.670;2023-04-07T14:36:10;21.40;75.80
19261;DHT22;9764;48.114;11.670;2023-04-07T14:38:38;21.40;75.80
19261;DHT22;9764;48.114;11.670;2023-04-07T14:41:07;21.40;75.90
19261;DHT22;9764;48.114;11.670;2023-04-07T14:43:36;21.40;75.90
19261;DHT22;9764;48.114;11.670;2023-04-07T14:46:05;21.30;75.90
19261;DHT22;9764;48.114;11.670;2023-04-07T14:48:34;21.40;76.00
19261;DHT22;9764;48.114;11.670;2023-04-07T14:51:09;21.30;75.90
19261;DHT22;9764;48.114;11.670;2023-04-07T14:53:39;21.30;75.90
19261;DHT22;9764;48.114;11.670;2023-04-07T14:56:09;21.30;75.90
19261;DHT22;9764;48.114;11.670;2023-04-07T14:58:38;21.30;75.90
19261;DHT22;9764;48.114;11.670;2023-04-07T15:01:06;21.30;75.80
19261;DHT22;9764;48.114;11.670;2023-04-07T15:03:35;21.30;75.90
19261;DHT22;9764;48.114;11.670;2023-04-07T15:06:09;21.30;75.90
19261;DHT22;9764;48.114;11.670;2023-04-07T15:08:39;21.30;76.80
19261;DHT22;9764;48.114;11.670;2023-04-07T15:11:07;21.30;76.00
19261;DHT22;9764;48.114;11.670;2023-04-07T15:13:36;21.30;76.00
19261;DHT22;9764;48.114;11.670;2023-04-07T15:16:06;21.30;76.00
19261;DHT22;9764;48.114;11.670;2023-04-07T15:18:34;21.30;76.00
19261;DHT22;9764;48.114;11.670;2023-04-07T15:21:03;21.30;76.00
19261;DHT22;9764;48.114;11.670;2023-04-07T15:23:33;21.30;76.10
19261;DHT22;9764;48.114;11.670;2023-04-07T15:26:03;21.30;76.10
19261;DHT22;9764;48.114;11.670;2023-04-07T15:28:32;21.30;76.10
19261;DHT22;9764;48.114;11.670;2023-04-07T15:31:01;21.20;76.10
19261;DHT22;9764;48.114;11.670;2023-04-07T15:33:29;21.30;76.20
19261;DHT22;9764;48.114;11.670;2023-04-07T15:35:57;21.20;76.20
19261;DHT22;9764;48.114;11.670;2023-04-07T15:38:27;21.20;76.20
19261;DHT22;9764;48.114;11.670;2023-04-07T15:40:57;21.20;76.20
19261;DHT22;9764;48.114;11.670;2023-04-07T15:43:26;21.20;76.20
19261;DHT22;9764;48.114;11.670;2023-04-07T15:45:54;21.20;76.30
19261;DHT22;9764;48.114;11.670;2023-04-07T15:48:23;21.20;76.30
19261;DHT22;9764;48.114;11.670;2023-04-07T15:50:52;21.20;76.40